createdAt,value
2023-02-21T00:00:39.653Z,6.738586
2023-02-21T00:01:48.376Z,6.718445
2023-02-21T00:02:55.968Z,6.738586
2023-02-21T00:04:05.655Z,6.698303
2023-02-21T00:05:14.309Z,6.65802
2023-02-21T00:06:23.956Z,6.65802
2023-02-21T00:07:33.614Z,6.668091
2023-02-21T00:08:41.266Z,6.698303
2023-02-21T00:09:50.921Z,6.698303
2023-02-21T00:11:00.598Z,6.698303
2023-02-21T00:12:09.246Z,6.698303
2023-02-21T00:13:18.945Z,6.688232
2023-02-21T00:14:28.597Z,6.688232
2023-02-21T00:15:37.219Z,6.698303
2023-02-21T00:16:46.963Z,6.688232
2023-02-21T00:17:54.518Z,6.65802
2023-02-21T00:19:04.185Z,6.617737
2023-02-21T00:20:12.878Z,6.597595
2023-02-21T00:21:21.514Z,6.597595
2023-02-21T00:22:31.164Z,6.597595
2023-02-21T00:23:38.822Z,6.597595
2023-02-21T00:24:48.528Z,6.597595
2023-02-21T00:25:58.188Z,6.617737
2023-02-21T00:27:06.829Z,6.587524
2023-02-21T00:28:16.494Z,6.587524
2023-02-21T00:29:26.171Z,6.567383
2023-02-21T00:30:33.883Z,6.567383
2023-02-21T00:31:43.451Z,6.557312
2023-02-21T00:32:52.188Z,6.53717
2023-02-21T00:34:00.807Z,6.506958
2023-02-21T00:35:10.443Z,6.476746
2023-02-21T00:36:19.075Z,6.446533
2023-02-21T00:37:28.723Z,6.416321
2023-02-21T00:38:37.405Z,6.355896
2023-02-21T00:39:46.053Z,6.325684
2023-02-21T00:40:55.695Z,6.27533
2023-02-21T00:42:03.342Z,6.295471
2023-02-21T00:43:10.965Z,6.27533
2023-02-21T00:44:20.642Z,6.265259
2023-02-21T00:45:29.281Z,6.224976
2023-02-21T00:46:38.924Z,6.235046
2023-02-21T00:47:47.564Z,6.255188
2023-02-21T00:48:57.293Z,6.224976
2023-02-21T00:50:05.967Z,6.204834
2023-02-21T00:51:15.892Z,6.144409
2023-02-21T00:52:25.255Z,6.124268
2023-02-21T00:53:34.947Z,6.083984
2023-02-21T00:54:44.597Z,6.043701
2023-02-21T00:55:54.281Z,5.983276
2023-02-21T00:57:02.924Z,5.90271
2023-02-21T00:58:12.582Z,5.842285
2023-02-21T00:59:22.253Z,5.731506
2023-02-21T01:00:28.890Z,5.711365
2023-02-21T01:01:38.581Z,5.691223
2023-02-21T01:02:48.197Z,5.661011
2023-02-21T01:03:57.899Z,5.610657
2023-02-21T01:05:07.582Z,5.540161
2023-02-21T01:06:17.206Z,5.499878
2023-02-21T01:07:24.835Z,5.439453
2023-02-21T01:08:34.508Z,5.439453
2023-02-21T01:09:44.162Z,5.409241
2023-02-21T01:10:53.836Z,5.429382
2023-02-21T01:12:01.472Z,5.439453
2023-02-21T01:13:10.117Z,5.429382
2023-02-21T01:14:19.780Z,5.409241
2023-02-21T01:15:29.496Z,5.389099
2023-02-21T01:16:39.067Z,5.379028
2023-02-21T01:17:47.747Z,5.389099
2023-02-21T01:18:56.415Z,5.389099
2023-02-21T01:20:06.067Z,5.379028
2023-02-21T01:21:15.080Z,5.439453
2023-02-21T01:22:24.362Z,5.439453
2023-02-21T01:23:34.030Z,5.479736
2023-02-21T01:24:42.709Z,5.479736
2023-02-21T01:25:52.344Z,5.53009
2023-02-21T01:27:00.989Z,5.53009
2023-02-21T01:28:10.649Z,5.620728
2023-02-21T01:29:20.342Z,5.681152
2023-02-21T01:30:28.985Z,5.791931
2023-02-21T01:31:37.636Z,5.842285
2023-02-21T01:32:47.300Z,5.90271
2023-02-21T01:33:54.945Z,5.912781
2023-02-21T01:35:04.700Z,5.912781
2023-02-21T01:36:14.263Z,5.892639
2023-02-21T01:37:22.310Z,5.90271
2023-02-21T01:38:31.554Z,5.872498
2023-02-21T01:39:40.230Z,5.892639
2023-02-21T01:40:48.870Z,5.90271
2023-02-21T01:41:58.516Z,5.862427
2023-02-21T01:43:07.177Z,5.872498
2023-02-21T01:44:16.865Z,5.932922
2023-02-21T01:45:26.509Z,5.983276
2023-02-21T01:46:34.153Z,5.993347
2023-02-21T01:47:43.842Z,5.973206
2023-02-21T01:48:53.499Z,5.932922
2023-02-21T01:50:00.127Z,5.90271
2023-02-21T01:51:09.774Z,5.872498
2023-02-21T01:52:17.438Z,5.832214
2023-02-21T01:53:27.111Z,5.822144
2023-02-21T01:54:36.757Z,5.761719
2023-02-21T01:55:44.396Z,5.751648
2023-02-21T01:56:53.040Z,5.681152
2023-02-21T01:58:04.536Z,5.610657
2023-02-21T01:59:12.319Z,5.560303
2023-02-21T02:00:21.978Z,5.560303
2023-02-21T02:01:30.678Z,5.620728
2023-02-21T02:02:40.273Z,5.681152
2023-02-21T02:03:48.924Z,5.691223
2023-02-21T02:04:56.585Z,5.65094
2023-02-21T02:06:06.235Z,5.570374
2023-02-21T02:07:13.870Z,5.499878
2023-02-21T02:08:22.536Z,5.469666
2023-02-21T02:09:32.205Z,5.469666
2023-02-21T02:10:39.863Z,5.439453
2023-02-21T02:11:49.503Z,5.409241
2023-02-21T02:12:59.151Z,5.348816
2023-02-21T02:14:06.781Z,5.298462
2023-02-21T02:15:16.490Z,5.227966
2023-02-21T02:16:24.114Z,5.167542
2023-02-21T02:17:32.803Z,5.076904
2023-02-21T02:18:42.446Z,5.016479
2023-02-21T02:19:51.140Z,4.956055
2023-02-21T02:21:00.791Z,4.996338
2023-02-21T02:22:10.450Z,4.996338
2023-02-21T02:23:19.099Z,5.046692
2023-02-21T02:24:27.758Z,5.076904
2023-02-21T02:25:36.461Z,5.107117
2023-02-21T02:26:46.087Z,5.117188
2023-02-21T02:27:55.753Z,5.066833
2023-02-21T02:29:03.396Z,5.046692
2023-02-21T02:30:13.105Z,4.996338
2023-02-21T02:31:21.762Z,4.966125
2023-02-21T02:32:30.342Z,4.925842
2023-02-21T02:33:39.999Z,4.865417
2023-02-21T02:34:48.681Z,4.815063
2023-02-21T02:35:58.341Z,4.77478
2023-02-21T02:37:08.001Z,4.734497
2023-02-21T02:38:16.652Z,4.633789
2023-02-21T02:39:26.330Z,4.593506
2023-02-21T02:40:35.032Z,4.52301
2023-02-21T02:41:43.706Z,4.422302
2023-02-21T02:42:53.336Z,4.371948
2023-02-21T02:44:00.978Z,4.301453
2023-02-21T02:45:09.624Z,4.241028
2023-02-21T02:46:19.317Z,4.220886
2023-02-21T02:47:28.955Z,4.241028
2023-02-21T02:48:38.613Z,4.311523
2023-02-21T02:49:47.254Z,4.321594
2023-02-21T02:50:55.922Z,4.321594
2023-02-21T02:52:05.584Z,4.382019
2023-02-21T02:53:14.210Z,4.482727
2023-02-21T02:54:22.846Z,4.492798
2023-02-21T02:55:32.525Z,4.502869
2023-02-21T02:56:41.167Z,4.482727
2023-02-21T02:57:50.864Z,4.442444
2023-02-21T02:59:00.502Z,4.402161
2023-02-21T03:00:09.163Z,4.321594
2023-02-21T03:01:18.884Z,4.230957
2023-02-21T03:02:28.503Z,4.160461
2023-02-21T03:03:38.163Z,4.049683
2023-02-21T03:04:47.819Z,3.959045
2023-02-21T03:05:56.481Z,3.868408
2023-02-21T03:07:06.128Z,3.777771
2023-02-21T03:08:15.783Z,3.656921
2023-02-21T03:09:25.425Z,3.576355
2023-02-21T03:10:36.106Z,3.475647
2023-02-21T03:11:43.746Z,3.415222
2023-02-21T03:12:53.420Z,3.364868
2023-02-21T03:14:03.022Z,3.314514
2023-02-21T03:15:11.660Z,3.254089
2023-02-21T03:16:21.377Z,3.223877
2023-02-21T03:17:30.975Z,3.193665
2023-02-21T03:18:40.619Z,3.163452
2023-02-21T03:19:49.262Z,3.13324
2023-02-21T03:20:57.928Z,3.143311
2023-02-21T03:22:07.577Z,3.183594
2023-02-21T03:23:16.222Z,3.163452
2023-02-21T03:24:24.850Z,3.103027
2023-02-21T03:25:34.498Z,3.082886
2023-02-21T03:26:42.165Z,3.052673
2023-02-21T03:27:51.840Z,3.072815
2023-02-21T03:29:00.526Z,3.052673
2023-02-21T03:30:07.162Z,3.042603
2023-02-21T03:31:17.099Z,3.052673
2023-02-21T03:32:26.511Z,3.052673
2023-02-21T03:33:35.152Z,3.103027
2023-02-21T03:34:44.813Z,3.13324
2023-02-21T03:35:54.510Z,3.113098
2023-02-21T03:37:04.131Z,3.183594
2023-02-21T03:38:13.766Z,3.254089
2023-02-21T03:39:22.409Z,3.314514
2023-02-21T03:40:32.095Z,3.374939
2023-02-21T03:41:40.727Z,3.415222
2023-02-21T03:42:50.369Z,3.445435
2023-02-21T03:43:59.014Z,3.475647
2023-02-21T03:45:07.681Z,3.475647
2023-02-21T03:46:17.349Z,3.526001
2023-02-21T03:47:26.999Z,3.556213
2023-02-21T03:48:34.630Z,3.556213
2023-02-21T03:49:44.276Z,3.576355
2023-02-21T03:50:52.950Z,3.626709
2023-02-21T03:52:01.670Z,3.596497
2023-02-21T03:53:11.316Z,3.646851
2023-02-21T03:54:19.997Z,3.646851
2023-02-21T03:55:29.643Z,3.656921
2023-02-21T03:56:42.096Z,3.616638
2023-02-21T03:57:46.944Z,3.656921
2023-02-21T03:58:56.642Z,3.677063
2023-02-21T04:00:06.242Z,3.697205
2023-02-21T04:01:16.329Z,3.737488
2023-02-21T04:02:24.669Z,3.777771
2023-02-21T04:03:33.195Z,3.797913
2023-02-21T04:04:42.855Z,3.807983
2023-02-21T04:05:51.494Z,3.868408
2023-02-21T04:07:01.175Z,3.938904
2023-02-21T04:08:10.848Z,3.989258
2023-02-21T04:09:19.459Z,4.059753
2023-02-21T04:10:29.098Z,4.120178
2023-02-21T04:11:39.741Z,4.14032
2023-02-21T04:12:47.379Z,4.190674
2023-02-21T04:13:57.037Z,4.261169
2023-02-21T04:15:05.682Z,4.371948
2023-02-21T04:16:13.361Z,4.482727
2023-02-21T04:17:23.030Z,4.563293
2023-02-21T04:18:31.660Z,4.664001
2023-02-21T04:19:40.308Z,4.744568
2023-02-21T04:20:51.017Z,4.804993
2023-02-21T04:22:00.755Z,4.865417
2023-02-21T04:23:10.399Z,4.925842
2023-02-21T04:24:20.049Z,4.935913
2023-02-21T04:25:28.709Z,4.986267
2023-02-21T04:26:38.391Z,5.016479
2023-02-21T04:27:47.030Z,5.107117
2023-02-21T04:28:55.675Z,5.117188
2023-02-21T04:30:05.420Z,5.137329
2023-02-21T04:31:14.365Z,5.167542
2023-02-21T04:32:23.864Z,5.167542
2023-02-21T04:33:32.407Z,5.207825
2023-02-21T04:34:41.019Z,5.248108
2023-02-21T04:35:50.688Z,5.248108
2023-02-21T04:36:59.347Z,5.27832
2023-02-21T04:38:08.988Z,5.258179
2023-02-21T04:39:18.637Z,5.258179
2023-02-21T04:40:27.301Z,5.27832
2023-02-21T04:41:36.953Z,5.288391
2023-02-21T04:42:46.641Z,5.288391
2023-02-21T04:43:54.278Z,5.258179
2023-02-21T04:45:03.929Z,5.258179
2023-02-21T04:46:13.589Z,5.27832
2023-02-21T04:47:22.255Z,5.27832
2023-02-21T04:48:31.906Z,5.258179
2023-02-21T04:49:39.610Z,5.298462
2023-02-21T04:50:49.218Z,5.298462
2023-02-21T04:51:59.892Z,5.328674
2023-02-21T04:53:08.539Z,5.348816
2023-02-21T04:54:18.184Z,5.379028
2023-02-21T04:55:26.831Z,5.389099
2023-02-21T04:56:35.490Z,5.429382
2023-02-21T04:57:44.149Z,5.439453
2023-02-21T04:58:52.789Z,5.439453
2023-02-21T05:00:02.445Z,5.439453
2023-02-21T05:01:12.350Z,5.409241
2023-02-21T05:02:20.750Z,5.379028
2023-02-21T05:03:30.404Z,5.389099
2023-02-21T05:04:39.052Z,5.389099
2023-02-21T05:05:48.783Z,5.439453
2023-02-21T05:06:58.414Z,5.499878
2023-02-21T05:08:07.105Z,5.53009
2023-02-21T05:09:16.751Z,5.610657
2023-02-21T05:10:28.973Z,5.640869
2023-02-21T05:11:36.069Z,5.691223
2023-02-21T05:12:44.754Z,5.711365
2023-02-21T05:13:52.403Z,5.751648
2023-02-21T05:15:02.047Z,5.761719
2023-02-21T05:16:10.749Z,5.802002
2023-02-21T05:17:19.371Z,5.822144
2023-02-21T05:18:29.040Z,5.862427
2023-02-21T05:19:36.697Z,5.90271
2023-02-21T05:20:46.344Z,5.912781
2023-02-21T05:21:56.026Z,5.912781
2023-02-21T05:23:12.937Z,5.932922
2023-02-21T05:24:14.294Z,5.932922
2023-02-21T05:25:21.929Z,5.90271
2023-02-21T05:26:30.563Z,5.90271
2023-02-21T05:27:40.305Z,5.892639
2023-02-21T05:28:48.867Z,5.842285
2023-02-21T05:29:58.553Z,5.822144
2023-02-21T05:31:07.277Z,5.822144
2023-02-21T05:32:14.932Z,5.822144
2023-02-21T05:33:24.551Z,5.751648
2023-02-21T05:34:32.219Z,5.721436
2023-02-21T05:35:41.836Z,5.681152
2023-02-21T05:36:50.479Z,5.640869
2023-02-21T05:37:59.185Z,5.570374
2023-02-21T05:39:08.823Z,5.53009
2023-02-21T05:40:17.458Z,5.479736
2023-02-21T05:41:25.100Z,5.459595
2023-02-21T05:42:34.788Z,5.429382
2023-02-21T05:43:44.432Z,5.389099
2023-02-21T05:44:53.087Z,5.358887
2023-02-21T05:46:02.836Z,5.348816
2023-02-21T05:47:10.461Z,5.328674
2023-02-21T05:48:20.129Z,5.328674
2023-02-21T05:49:29.805Z,5.318604
2023-02-21T05:50:37.424Z,5.318604
2023-02-21T05:51:47.082Z,5.298462
2023-02-21T05:52:56.769Z,5.318604
2023-02-21T05:54:06.455Z,5.288391
2023-02-21T05:55:16.119Z,5.288391
2023-02-21T05:56:23.787Z,5.27832
2023-02-21T05:57:33.440Z,5.298462
2023-02-21T05:58:43.111Z,5.298462
2023-02-21T05:59:52.817Z,5.288391
2023-02-21T06:01:09.492Z,5.298462
2023-02-21T06:02:19.282Z,5.27832
2023-02-21T06:03:27.848Z,5.288391
2023-02-21T06:04:37.461Z,5.288391
2023-02-21T06:05:46.131Z,5.288391
2023-02-21T06:06:55.784Z,5.288391
2023-02-21T06:08:04.450Z,5.318604
2023-02-21T06:09:13.117Z,5.318604
2023-02-21T06:10:21.741Z,5.328674
2023-02-21T06:11:31.406Z,5.318604
2023-02-21T06:12:40.121Z,5.348816
2023-02-21T06:13:49.789Z,5.348816
2023-02-21T06:14:59.483Z,5.348816
2023-02-21T06:16:09.168Z,5.348816
2023-02-21T06:17:18.837Z,5.348816
2023-02-21T06:18:26.522Z,5.328674
2023-02-21T06:19:36.160Z,5.328674
2023-02-21T06:20:45.812Z,5.328674
2023-02-21T06:21:54.468Z,5.358887
2023-02-21T06:23:04.116Z,5.389099
2023-02-21T06:24:12.858Z,5.389099
2023-02-21T06:25:21.530Z,5.389099
2023-02-21T06:26:31.190Z,5.389099
2023-02-21T06:27:39.845Z,5.429382
2023-02-21T06:28:49.515Z,5.409241
2023-02-21T06:29:59.171Z,5.429382
2023-02-21T06:31:08.853Z,5.409241
2023-02-21T06:32:18.549Z,5.429382
2023-02-21T06:33:27.166Z,5.459595
2023-02-21T06:34:35.816Z,5.429382
2023-02-21T06:35:45.471Z,5.439453
2023-02-21T06:36:54.117Z,5.429382
2023-02-21T06:38:02.814Z,5.459595
2023-02-21T06:39:12.517Z,5.469666
2023-02-21T06:40:20.160Z,5.469666
2023-02-21T06:41:29.836Z,5.479736
2023-02-21T06:42:39.461Z,5.509949
2023-02-21T06:43:47.115Z,5.540161
2023-02-21T06:44:56.787Z,5.560303
2023-02-21T06:46:05.519Z,5.610657
2023-02-21T06:47:15.112Z,5.620728
2023-02-21T06:48:24.765Z,5.640869
2023-02-21T06:49:32.457Z,5.661011
2023-02-21T06:50:42.107Z,5.681152
2023-02-21T06:51:50.780Z,5.691223
2023-02-21T06:52:59.463Z,5.751648
2023-02-21T06:54:09.213Z,5.822144
2023-02-21T06:55:17.950Z,5.90271
2023-02-21T06:56:27.628Z,5.993347
2023-02-21T06:57:37.272Z,6.094055
2023-02-21T06:58:44.894Z,6.204834
2023-02-21T06:59:54.595Z,6.27533
2023-02-21T07:01:03.265Z,6.345825
2023-02-21T07:02:11.920Z,6.446533
2023-02-21T07:03:21.584Z,6.557312
2023-02-21T07:04:29.342Z,6.688232
2023-02-21T07:05:38.989Z,6.738586
2023-02-21T07:06:48.626Z,6.78894
2023-02-21T07:07:57.400Z,6.919861
2023-02-21T07:09:07.104Z,7.000427
2023-02-21T07:10:16.781Z,7.060852
2023-02-21T07:11:26.433Z,7.101135
2023-02-21T07:12:36.078Z,7.211914
2023-02-21T07:13:44.760Z,7.362976
2023-02-21T07:14:54.430Z,7.453613
2023-02-21T07:16:02.157Z,7.564392
2023-02-21T07:17:10.753Z,7.715454
2023-02-21T07:18:20.412Z,7.937012
2023-02-21T07:19:29.120Z,8.148499
2023-02-21T07:20:38.782Z,8.259277
2023-02-21T07:21:48.460Z,8.370056
2023-02-21T07:22:57.133Z,8.490906
2023-02-21T07:24:06.874Z,8.551331
2023-02-21T07:25:14.545Z,8.611755
2023-02-21T07:26:24.251Z,8.742676
2023-02-21T07:27:33.975Z,8.893738
2023-02-21T07:28:42.629Z,8.954163
2023-02-21T07:29:52.323Z,8.79303
2023-02-21T07:31:02.018Z,8.79303
2023-02-21T07:32:10.671Z,8.631897
2023-02-21T07:33:20.276Z,8.511047
2023-02-21T07:34:28.955Z,8.460693
2023-02-21T07:35:38.622Z,8.601685
2023-02-21T07:36:48.357Z,8.67218
2023-02-21T07:37:57.011Z,8.762817
2023-02-21T07:39:06.678Z,8.944092
2023-02-21T07:40:16.380Z,9.205933
2023-02-21T07:41:23.022Z,9.336853
2023-02-21T07:42:32.684Z,9.336853
2023-02-21T07:43:40.318Z,9.367065
2023-02-21T07:44:50.005Z,9.407349
2023-02-21T07:45:58.679Z,9.538269
2023-02-21T07:47:06.305Z,9.830322
2023-02-21T07:48:15.979Z,9.910889
2023-02-21T07:49:25.654Z,9.820251
2023-02-21T07:50:33.339Z,9.820251
2023-02-21T07:51:41.987Z,9.67926
2023-02-21T07:52:49.627Z,9.54834
2023-02-21T07:53:58.286Z,9.437561
2023-02-21T07:55:07.990Z,9.54834
2023-02-21T07:56:15.859Z,9.497986
2023-02-21T07:57:25.541Z,9.588623
2023-02-21T07:58:34.199Z,9.719543
2023-02-21T07:59:43.869Z,9.769897
2023-02-21T08:00:53.548Z,10.021667
2023-02-21T08:02:02.333Z,10.283508
2023-02-21T08:03:10.879Z,10.484924
2023-02-21T08:04:20.555Z,10.80719
2023-02-21T08:05:28.210Z,10.968323
2023-02-21T08:06:37.884Z,11.169739
2023-02-21T08:07:46.560Z,11.451721
2023-02-21T08:08:55.238Z,11.602783
2023-02-21T08:10:04.917Z,11.663208
2023-02-21T08:11:13.962Z,11.632996
2023-02-21T08:12:22.239Z,11.69342
2023-02-21T08:13:30.914Z,11.914978
2023-02-21T08:14:40.593Z,12.19696
2023-02-21T08:15:50.312Z,12.31781
2023-02-21T08:16:58.920Z,12.579651
2023-02-21T08:18:07.605Z,12.730713
2023-02-21T08:19:17.273Z,12.730713
2023-02-21T08:20:24.956Z,12.549438
2023-02-21T08:21:33.620Z,12.489014
2023-02-21T08:22:44.301Z,12.579651
2023-02-21T08:23:53.961Z,12.529297
2023-02-21T08:25:03.654Z,12.489014
2023-02-21T08:26:12.301Z,12.368164
2023-02-21T08:27:19.950Z,12.247314
2023-02-21T08:28:29.613Z,12.146606
2023-02-21T08:29:37.276Z,12.217102
2023-02-21T08:30:45.977Z,12.116394
2023-02-21T08:31:55.648Z,12.126465
2023-02-21T08:33:04.329Z,12.267456
2023-02-21T08:34:13.993Z,12.489014
2023-02-21T08:35:24.634Z,12.720642
2023-02-21T08:36:32.284Z,13.032837
2023-02-21T08:37:40.928Z,13.345032
2023-02-21T08:38:48.599Z,13.526306
2023-02-21T08:39:58.260Z,13.707581
2023-02-21T08:41:07.938Z,13.919067
2023-02-21T08:42:15.614Z,14.362183
2023-02-21T08:43:25.294Z,14.634094
2023-02-21T08:44:33.947Z,14.694519
2023-02-21T08:45:41.631Z,14.996643
2023-02-21T08:46:51.334Z,14.845581
2023-02-21T08:48:00.996Z,15.107422
2023-02-21T08:49:09.638Z,15.328979
2023-02-21T08:50:19.361Z,15.359192
2023-02-21T08:51:27.997Z,15.520325
2023-02-21T08:52:37.644Z,15.721741
2023-02-21T08:53:46.321Z,16.013794
2023-02-21T08:54:54.007Z,16.08429
2023-02-21T08:56:03.699Z,15.84259
2023-02-21T08:57:11.382Z,15.983582
2023-02-21T08:58:20.019Z,15.983582
2023-02-21T08:59:28.718Z,16.104431
2023-02-21T09:00:36.405Z,16.174927
2023-02-21T09:01:46.121Z,16.305847
2023-02-21T09:02:52.811Z,16.164856
2023-02-21T09:04:02.483Z,15.84259
2023-02-21T09:05:11.190Z,15.862732
2023-02-21T09:06:18.879Z,15.943298
2023-02-21T09:07:28.516Z,16.154785
2023-02-21T09:08:36.170Z,16.356201
2023-02-21T09:09:45.830Z,16.607971
2023-02-21T09:10:55.696Z,16.8396
2023-02-21T09:12:04.222Z,16.889954
2023-02-21T09:13:13.912Z,17.041016
2023-02-21T09:14:23.580Z,17.22229
2023-02-21T09:15:31.260Z,17.312927
2023-02-21T09:16:40.999Z,17.413635
2023-02-21T09:17:48.601Z,17.453918
2023-02-21T09:18:57.298Z,17.463989
2023-02-21T09:20:06.987Z,17.544556
2023-02-21T09:21:14.967Z,17.242432
2023-02-21T09:22:24.367Z,17.192078
2023-02-21T09:23:34.015Z,17.393494
2023-02-21T09:24:41.678Z,17.312927
2023-02-21T09:25:51.371Z,17.302856
2023-02-21T09:27:01.021Z,17.413635
2023-02-21T09:28:10.686Z,17.645264
2023-02-21T09:29:20.335Z,17.776184
2023-02-21T09:30:29.037Z,17.705688
2023-02-21T09:31:38.798Z,17.453918
2023-02-21T09:32:47.357Z,17.59491
2023-02-21T09:33:55.970Z,17.675476
2023-02-21T09:35:05.648Z,17.665405
2023-02-21T09:36:14.349Z,17.635193
2023-02-21T09:37:23.985Z,17.675476
2023-02-21T09:38:33.677Z,17.85675
2023-02-21T09:39:42.305Z,17.826538
2023-02-21T09:40:51.988Z,17.494202
2023-02-21T09:42:00.650Z,17.22229
2023-02-21T09:43:09.298Z,17.363281
2023-02-21T09:44:18.977Z,17.22229
2023-02-21T09:45:27.670Z,16.960449
2023-02-21T09:46:36.354Z,16.960449
2023-02-21T09:47:46.007Z,16.648254
2023-02-21T09:48:54.670Z,16.738892
2023-02-21T09:50:04.317Z,16.426697
2023-02-21T09:51:14.377Z,16.456909
2023-02-21T09:52:21.708Z,16.487122
2023-02-21T09:53:31.356Z,15.913086
2023-02-21T09:54:39.050Z,15.731812
2023-02-21T09:55:48.689Z,15.721741
2023-02-21T09:56:58.369Z,15.84259
2023-02-21T09:58:07.028Z,16.09436
2023-02-21T09:59:16.689Z,16.577759
2023-02-21T10:00:26.353Z,16.900024
2023-02-21T10:01:35.104Z,17.22229
2023-02-21T10:02:44.675Z,17.111511
2023-02-21T10:03:52.324Z,16.829529
2023-02-21T10:05:01.101Z,16.990662
2023-02-21T10:06:10.658Z,17.423706
2023-02-21T10:07:18.387Z,17.816467
2023-02-21T10:08:28.045Z,17.85675
2023-02-21T10:09:36.693Z,17.997742
2023-02-21T10:10:45.442Z,17.524414
2023-02-21T10:11:55.082Z,17.383423
2023-02-21T10:13:03.743Z,17.272644
2023-02-21T10:14:12.401Z,17.292786
2023-02-21T10:15:22.066Z,17.312927
2023-02-21T10:16:30.957Z,17.59491
2023-02-21T10:17:40.585Z,18.007812
2023-02-21T10:18:49.239Z,18.450928
2023-02-21T10:19:57.913Z,18.712769
2023-02-21T10:21:06.610Z,18.863831
2023-02-21T10:22:16.232Z,18.98468
2023-02-21T10:23:24.867Z,19.145813
2023-02-21T10:24:34.534Z,19.508362
2023-02-21T10:25:43.185Z,19.709778
2023-02-21T10:26:52.899Z,19.760132
2023-02-21T10:28:02.578Z,19.911194
2023-02-21T10:29:11.238Z,19.578857
2023-02-21T10:30:20.998Z,18.702698
2023-02-21T10:31:29.696Z,18.199158
2023-02-21T10:32:39.276Z,18.128662
2023-02-21T10:33:48.937Z,18.128662
2023-02-21T10:34:56.631Z,18.35022
2023-02-21T10:36:06.368Z,18.783264
2023-02-21T10:37:17.090Z,19.004822
2023-02-21T10:38:25.614Z,19.085388
2023-02-21T10:39:35.269Z,19.035034
2023-02-21T10:40:43.910Z,19.256592
2023-02-21T10:41:52.593Z,19.478149
2023-02-21T10:43:02.350Z,19.508362
2023-02-21T10:44:09.971Z,19.518433
2023-02-21T10:45:19.621Z,19.538574
2023-02-21T10:46:28.271Z,19.588928
2023-02-21T10:47:35.923Z,19.518433
2023-02-21T10:48:45.602Z,19.296875
2023-02-21T10:49:53.250Z,19.447937
2023-02-21T10:51:02.922Z,19.760132
2023-02-21T10:52:12.619Z,19.790344
2023-02-21T10:53:22.410Z,19.86084
2023-02-21T10:54:34.820Z,19.880981
2023-02-21T10:55:42.762Z,19.911194
2023-02-21T10:56:52.461Z,19.770203
2023-02-21T10:58:02.132Z,19.558716
2023-02-21T10:59:10.809Z,19.518433
2023-02-21T11:00:19.463Z,19.760132
2023-02-21T11:01:29.139Z,19.850769
2023-02-21T11:02:37.944Z,19.689636
2023-02-21T11:03:47.579Z,19.538574
2023-02-21T11:04:57.242Z,19.548645
2023-02-21T11:06:05.027Z,19.709778
2023-02-21T11:07:14.603Z,19.941406
2023-02-21T11:08:24.294Z,20.072327
2023-02-21T11:09:32.940Z,19.951477
2023-02-21T11:10:42.658Z,20.102539
2023-02-21T11:11:50.368Z,20.092468
2023-02-21T11:12:59.043Z,19.911194
2023-02-21T11:14:08.728Z,19.891052
2023-02-21T11:15:16.461Z,20.11261
2023-02-21T11:16:26.100Z,20.253601
2023-02-21T11:17:34.837Z,20.314026
2023-02-21T11:18:42.493Z,20.314026
2023-02-21T11:19:52.155Z,20.344238
2023-02-21T11:21:01.830Z,20.61615
2023-02-21T11:22:10.499Z,20.61615
2023-02-21T11:23:20.204Z,20.475159
2023-02-21T11:24:28.942Z,20.293884
2023-02-21T11:25:38.629Z,19.99176
2023-02-21T11:26:47.330Z,20.001831
2023-02-21T11:27:57.080Z,20.162964
2023-02-21T11:29:06.751Z,20.444946
2023-02-21T11:30:15.458Z,20.515442
2023-02-21T11:31:24.158Z,20.324097
2023-02-21T11:32:33.814Z,20.162964
2023-02-21T11:33:42.518Z,20.183105
2023-02-21T11:34:52.205Z,20.102539
2023-02-21T11:36:01.905Z,20.263672
2023-02-21T11:37:10.563Z,20.585938
2023-02-21T11:38:19.278Z,20.928345
2023-02-21T11:39:28.951Z,21.149902
2023-02-21T11:40:38.618Z,21.361389
2023-02-21T11:41:47.318Z,21.552734
2023-02-21T11:42:56.009Z,21.723938
2023-02-21T11:44:05.721Z,21.804504
2023-02-21T11:45:14.428Z,21.885071
2023-02-21T11:46:24.174Z,21.774292
2023-02-21T11:47:33.839Z,21.220398
2023-02-21T11:48:41.513Z,21.210327
2023-02-21T11:49:52.289Z,20.807495
2023-02-21T11:50:59.909Z,20.646362
2023-02-21T11:52:08.565Z,20.797424
2023-02-21T11:53:18.265Z,21.049194
2023-02-21T11:54:26.926Z,21.37146
2023-02-21T11:55:36.615Z,21.663513
2023-02-21T11:56:45.253Z,21.834717
2023-02-21T11:57:52.969Z,22.015991
2023-02-21T11:59:02.654Z,22.136841
2023-02-21T12:00:11.325Z,22.015991
2023-02-21T12:01:20.078Z,22.136841
2023-02-21T12:02:29.778Z,22.217407
2023-02-21T12:03:36.435Z,22.318115
2023-02-21T12:04:46.123Z,22.076416
2023-02-21T12:05:54.884Z,22.096558
2023-02-21T12:07:02.483Z,22.096558
2023-02-21T12:08:12.197Z,22.136841
2023-02-21T12:09:21.845Z,22.297974
2023-02-21T12:10:30.508Z,22.277832
2023-02-21T12:11:40.223Z,22.449036
2023-02-21T12:12:50.008Z,22.348328
2023-02-21T12:13:59.712Z,22.428894
2023-02-21T12:15:09.376Z,22.318115
2023-02-21T12:16:16.099Z,22.529602
2023-02-21T12:17:25.770Z,22.660522
2023-02-21T12:18:34.485Z,22.902222
2023-02-21T12:19:43.216Z,22.942505
2023-02-21T12:20:52.894Z,22.590027
2023-02-21T12:22:00.559Z,22.50946
2023-02-21T12:23:10.225Z,22.469177
2023-02-21T12:24:18.886Z,22.277832
2023-02-21T12:25:28.540Z,22.388611
2023-02-21T12:26:38.296Z,22.529602
2023-02-21T12:27:47.241Z,22.569885
2023-02-21T12:28:56.956Z,22.731018
2023-02-21T12:30:06.744Z,23.023071
2023-02-21T12:31:15.832Z,23.063354
2023-02-21T12:32:25.134Z,23.033142
2023-02-21T12:33:35.788Z,22.680664
2023-02-21T12:34:43.438Z,22.539673
2023-02-21T12:35:53.310Z,21.975708
2023-02-21T12:37:01.867Z,21.875
2023-02-21T12:38:10.537Z,22.036133
2023-02-21T12:39:20.240Z,22.096558
2023-02-21T12:40:27.918Z,22.388611
2023-02-21T12:41:37.590Z,22.569885
2023-02-21T12:42:46.318Z,22.932434
2023-02-21T12:43:54.051Z,23.13385
2023-02-21T12:45:03.766Z,23.456116
2023-02-21T12:46:11.457Z,23.50647
2023-02-21T12:47:20.142Z,23.50647
2023-02-21T12:48:29.817Z,23.657532
2023-02-21T12:49:38.527Z,23.496399
2023-02-21T12:50:48.236Z,23.728027
2023-02-21T12:51:57.996Z,23.607178
2023-02-21T12:53:05.685Z,23.576965
2023-02-21T12:54:15.375Z,23.858948
2023-02-21T12:55:24.077Z,24.050293
2023-02-21T12:56:32.759Z,24.211426
2023-02-21T12:57:42.416Z,24.281921
2023-02-21T12:58:51.134Z,24.553833
2023-02-21T13:00:00.860Z,24.281921
2023-02-21T13:01:10.533Z,23.738098
2023-02-21T13:02:20.197Z,23.496399
2023-02-21T13:03:29.905Z,23.315125
2023-02-21T13:04:38.643Z,23.153992
2023-02-21T13:05:47.298Z,23.023071
2023-02-21T13:06:56.982Z,22.841797
2023-02-21T13:08:04.673Z,22.851868
2023-02-21T13:09:14.471Z,22.700806
2023-02-21T13:10:23.182Z,22.912292
2023-02-21T13:11:32.024Z,23.38562
2023-02-21T13:12:42.674Z,23.768311
2023-02-21T13:13:51.342Z,23.869019
2023-02-21T13:15:01.077Z,24.100647
2023-02-21T13:16:10.822Z,24.01001
2023-02-21T13:17:19.440Z,23.738098
2023-02-21T13:18:29.120Z,23.576965
2023-02-21T13:19:37.812Z,24.020081
2023-02-21T13:20:45.506Z,24.422913
2023-02-21T13:21:55.196Z,24.76532
2023-02-21T13:23:02.953Z,24.503479
2023-02-21T13:24:11.643Z,24.422913